Time,TemperatureF,DewpointF,PressureIn,WindDirection,WindDirectionDegrees,WindSpeedMPH,WindSpeedGustMPH,Humidity,HourlyPrecipIn,Conditions,Clouds,dailyrainin,SoftwareType,DateUTC
2013-02-07 00:00:00,19.4,11.0,30.20,NW,315,13.8,26.6,62,0.00,,,0.00,Rainwise IP-100,2013-02-07 05:00:00,
2013-02-07 00:05:00,18.9,8.0,30.19,NNW,337,19.6,31.5,59,0.00,,,0.00,Rainwise IP-100,2013-02-07 05:05:00,
2013-02-07 00:10:00,18.6,8.0,30.20,NW,315,1.9,27.3,59,0.00,,,0.00,Rainwise IP-100,2013-02-07 05:10:00,
2013-02-07 00:15:00,18.6,11.0,30.21,North,0,2.8,25.6,60,0.00,,,0.00,Rainwise IP-100,2013-02-07 05:15:00,
2013-02-07 00:20:00,18.5,11.0,30.21,NNW,337,4.4,24.5,62,0.00,,,0.00,Rainwise IP-100,2013-02-07 05:20:00,
2013-02-07 00:25:00,18.4,8.0,30.21,NNW,337,20.1,28.2,62,0.00,,,0.00,Rainwise IP-100,2013-02-07 05:25:00,
2013-02-07 00:30:00,17.9,8.0,30.22,NNW,337,17.7,25.4,60,0.00,,,0.00,Rainwise IP-100,2013-02-07 05:30:00,
2013-02-07 00:35:00,17.4,8.0,30.22,East,90,3.0,25.2,57,0.00,,,0.00,Rainwise IP-100,2013-02-07 05:35:00,
2013-02-07 00:40:00,17.4,8.0,30.22,North,0,10.0,27.0,58,0.00,,,0.00,Rainwise IP-100,2013-02-07 05:40:00,
2013-02-07 00:45:00,17.5,8.0,30.22,NNW,337,14.9,28.0,60,0.00,,,0.00,Rainwise IP-100,2013-02-07 05:45:00,
2013-02-07 00:50:00,17.3,8.0,30.23,NNW,337,7.0,18.0,60,0.00,,,0.00,Rainwise IP-100,2013-02-07 05:50:00,
2013-02-07 00:55:00,17.1,8.0,30.22,NNW,337,20.1,28.0,59,0.00,,,0.00,Rainwise IP-100,2013-02-07 05:55:00,
2013-02-07 01:00:00,17.0,8.0,30.24,ESE,112,2.3,23.6,59,0.00,,,0.00,Rainwise IP-100,2013-02-07 06:00:00,
2013-02-07 01:05:00,17.0,8.0,30.23,NW,315,14.7,20.3,60,0.00,,,0.00,Rainwise IP-100,2013-02-07 06:05:00,
2013-02-07 01:10:00,17.0,8.0,30.24,NW,315,12.8,18.7,60,0.00,,,0.00,Rainwise IP-100,2013-02-07 06:10:00,
2013-02-07 01:15:00,16.9,8.0,30.25,South,180,1.2,17.0,61,0.00,,,0.00,Rainwise IP-100,2013-02-07 06:15:00,
2013-02-07 01:20:00,16.8,8.0,30.25,NNW,337,13.5,17.3,61,0.00,,,0.00,Rainwise IP-100,2013-02-07 06:20:00,
2013-02-07 01:22:00,16.7,8.0,30.24,NNW,337,1.4,17.5,61,0.00,,,0.00,Rainwise IP-100,2013-02-07 06:22:00,
2013-02-07 01:23:00,16.6,8.0,30.24,NNW,337,13.5,17.5,61,0.00,,,0.00,Rainwise IP-100,2013-02-07 06:23:00,
2013-02-07 01:28:00,16.1,4.0,30.25,NNW,337,8.6,17.7,59,0.00,,,0.00,Rainwise IP-100,2013-02-07 06:28:00,
2013-02-07 01:33:00,15.8,4.0,30.25,NNW,337,17.5,20.8,57,0.00,,,0.00,Rainwise IP-100,2013-02-07 06:33:00,
2013-02-07 01:38:00,15.4,4.0,30.25,NNW,337,16.6,23.6,55,0.00,,,0.00,Rainwise IP-100,2013-02-07 06:38:00,
2013-02-07 01:43:00,15.0,4.0,30.25,NW,315,18.7,21.5,53,0.00,,,0.00,Rainwise IP-100,2013-02-07 06:43:00,
2013-02-07 01:48:00,14.8,4.0,30.25,NW,315,17.0,24.9,52,0.00,,,0.00,Rainwise IP-100,2013-02-07 06:48:00,
2013-02-07 01:49:00,14.8,4.0,30.25,NW,315,12.8,23.6,52,0.00,,,0.00,Rainwise IP-100,2013-02-07 06:49:00,
2013-02-07 01:54:00,14.6,4.0,30.26,NW,315,10.0,20.1,52,0.00,,,0.00,Rainwise IP-100,2013-02-07 06:54:00,
2013-02-07 01:59:00,14.4,0.0,30.25,NNW,337,19.1,23.3,52,0.00,,,0.00,Rainwise IP-100,2013-02-07 06:59:00,
2013-02-07 02:04:00,14.3,0.0,30.26,NW,315,19.4,22.9,52,0.00,,,0.00,Rainwise IP-100,2013-02-07 07:04:00,
2013-02-07 02:09:00,14.1,0.0,30.25,NNW,337,16.3,24.9,52,0.00,,,0.00,Rainwise IP-100,2013-02-07 07:09:00,
2013-02-07 02:14:00,14.2,0.0,30.26,NNW,337,15.4,20.8,54,0.00,,,0.00,Rainwise IP-100,2013-02-07 07:14:00,
2013-02-07 02:19:00,14.3,0.0,30.26,NNW,337,16.3,22.4,55,0.00,,,0.00,Rainwise IP-100,2013-02-07 07:19:00,
2013-02-07 02:24:00,14.0,0.0,30.26,North,0,15.2,24.5,54,0.00,,,0.00,Rainwise IP-100,2013-02-07 07:24:00,
2013-02-07 02:29:00,13.7,0.0,30.26,NW,315,15.6,26.8,52,0.00,,,0.00,Rainwise IP-100,2013-02-07 07:29:00,
2013-02-07 02:34:00,13.4,0.0,30.26,NW,315,14.5,22.4,52,0.00,,,0.00,Rainwise IP-100,2013-02-07 07:34:00,
2013-02-07 02:39:00,13.2,0.0,30.28,NNW,337,11.7,21.2,52,0.00,,,0.00,Rainwise IP-100,2013-02-07 07:39:00,
2013-02-07 02:44:00,13.1,0.0,30.28,NNW,337,13.1,20.5,52,0.00,,,0.00,Rainwise IP-100,2013-02-07 07:44:00,
2013-02-07 02:49:00,12.9,0.0,30.27,NNW,337,14.5,19.4,53,0.00,,,0.00,Rainwise IP-100,2013-02-07 07:49:00,
2013-02-07 02:54:00,12.8,0.0,30.28,NW,315,14.0,21.0,53,0.00,,,0.00,Rainwise IP-100,2013-02-07 07:54:00,
2013-02-07 02:59:00,12.7,0.0,30.28,NNW,337,18.0,20.3,54,0.00,,,0.00,Rainwise IP-100,2013-02-07 07:59:00,
2013-02-07 03:04:00,12.7,0.0,30.29,NW,315,11.9,18.0,54,0.00,,,0.00,Rainwise IP-100,2013-02-07 08:04:00,
2013-02-07 03:09:00,12.5,0.0,30.29,NNW,337,8.9,18.4,55,0.00,,,0.00,Rainwise IP-100,2013-02-07 08:09:00,
2013-02-07 03:14:00,12.4,0.0,30.29,NNW,337,11.2,20.5,55,0.00,,,0.00,Rainwise IP-100,2013-02-07 08:14:00,
2013-02-07 03:19:00,12.6,0.0,30.29,NNW,337,15.9,21.0,56,0.00,,,0.00,Rainwise IP-100,2013-02-07 08:19:00,
2013-02-07 03:24:00,12.4,0.0,30.30,NW,315,13.8,26.6,56,0.00,,,0.00,Rainwise IP-100,2013-02-07 08:24:00,
2013-02-07 03:29:00,12.0,0.0,30.30,NW,315,9.3,23.1,55,0.00,,,0.00,Rainwise IP-100,2013-02-07 08:29:00,
2013-02-07 03:34:00,11.9,0.0,30.30,NW,315,17.3,19.8,55,0.00,,,0.00,Rainwise IP-100,2013-02-07 08:34:00,
2013-02-07 03:39:00,11.9,0.0,30.31,North,0,12.6,17.3,56,0.00,,,0.00,Rainwise IP-100,2013-02-07 08:39:00,
2013-02-07 03:44:00,11.7,0.0,30.30,NW,315,8.4,17.0,56,0.00,,,0.00,Rainwise IP-100,2013-02-07 08:44:00,
2013-02-07 03:49:00,11.5,0.0,30.31,NNW,337,11.7,16.6,55,0.00,,,0.00,Rainwise IP-100,2013-02-07 08:49:00,
2013-02-07 03:54:00,11.5,0.0,30.31,NW,315,10.3,18.9,56,0.00,,,0.00,Rainwise IP-100,2013-02-07 08:54:00,
2013-02-07 03:59:00,11.4,0.0,30.31,NW,315,10.5,16.3,56,0.00,,,0.00,Rainwise IP-100,2013-02-07 08:59:00,
2013-02-07 04:04:00,11.3,0.0,30.31,NNW,337,11.4,18.4,57,0.00,,,0.00,Rainwise IP-100,2013-02-07 09:04:00,
2013-02-07 04:09:00,11.3,0.0,30.31,NW,315,10.5,16.8,57,0.00,,,0.00,Rainwise IP-100,2013-02-07 09:09:00,
2013-02-07 04:14:00,11.2,0.0,30.32,NNW,337,14.5,20.1,57,0.00,,,0.00,Rainwise IP-100,2013-02-07 09:14:00,
2013-02-07 04:19:00,11.3,0.0,30.32,NNW,337,8.4,17.7,58,0.00,,,0.00,Rainwise IP-100,2013-02-07 09:19:00,
2013-02-07 04:24:00,11.6,4.0,30.32,NNW,337,11.4,22.9,61,0.00,,,0.00,Rainwise IP-100,2013-02-07 09:24:00,
2013-02-07 04:29:00,11.7,4.0,30.32,NE,45,1.9,21.9,62,0.00,,,0.00,Rainwise IP-100,2013-02-07 09:29:00,
2013-02-07 04:34:00,11.6,4.0,30.32,SE,135,1.4,20.1,62,0.00,,,0.00,Rainwise IP-100,2013-02-07 09:34:00,
2013-02-07 04:39:00,11.9,4.0,30.32,NNW,337,7.0,18.4,64,0.00,,,0.00,Rainwise IP-100,2013-02-07 09:39:00,
2013-02-07 04:44:00,12.0,4.0,30.33,North,0,3.3,19.8,65,0.00,,,0.00,Rainwise IP-100,2013-02-07 09:44:00,
2013-02-07 04:49:00,12.1,4.0,30.33,South,180,1.6,11.0,66,0.00,,,0.00,Rainwise IP-100,2013-02-07 09:49:00,
2013-02-07 04:54:00,12.5,8.0,30.33,NE,45,4.2,20.3,69,0.00,,,0.00,Rainwise IP-100,2013-02-07 09:54:00,
2013-02-07 04:59:00,12.6,8.0,30.33,SSW,202,0.0,21.5,70,0.00,,,0.00,Rainwise IP-100,2013-02-07 09:59:00,
2013-02-07 05:04:00,12.7,8.0,30.34,North,0,1.9,22.6,71,0.00,,,0.00,Rainwise IP-100,2013-02-07 10:04:00,
2013-02-07 05:09:00,12.5,8.0,30.34,NNE,22,6.3,28.4,71,0.00,,,0.00,Rainwise IP-100,2013-02-07 10:09:00,
2013-02-07 05:14:00,12.0,8.0,30.33,NNW,337,17.0,21.7,71,0.00,,,0.00,Rainwise IP-100,2013-02-07 10:14:00,
2013-02-07 05:19:00,11.9,8.0,30.34,NNE,22,5.6,21.7,71,0.00,,,0.00,Rainwise IP-100,2013-02-07 10:19:00,
2013-02-07 05:24:00,11.9,8.0,30.34,NNW,337,2.1,21.5,72,0.00,,,0.00,Rainwise IP-100,2013-02-07 10:24:00,
2013-02-07 05:29:00,11.8,8.0,30.35,NNW,337,13.8,19.1,72,0.00,,,0.00,Rainwise IP-100,2013-02-07 10:29:00,
2013-02-07 05:34:00,11.5,8.0,30.35,ENE,67,2.6,23.1,72,0.00,,,0.00,Rainwise IP-100,2013-02-07 10:34:00,
2013-02-07 05:39:00,11.4,4.0,30.36,NNE,22,1.4,19.8,72,0.00,,,0.00,Rainwise IP-100,2013-02-07 10:39:00,
2013-02-07 05:44:00,11.5,8.0,30.37,NNE,22,2.8,22.2,72,0.00,,,0.00,Rainwise IP-100,2013-02-07 10:44:00,
2013-02-07 05:49:00,11.3,4.0,30.38,West,270,0.0,21.9,72,0.00,,,0.00,Rainwise IP-100,2013-02-07 10:49:00,
2013-02-07 05:54:00,11.3,4.0,30.37,SSE,157,1.4,21.7,73,0.00,,,0.00,Rainwise IP-100,2013-02-07 10:54:00,
2013-02-07 05:59:00,11.0,4.0,30.37,North,0,6.5,20.3,72,0.00,,,0.00,Rainwise IP-100,2013-02-07 10:59:00,
2013-02-07 06:04:00,10.6,4.0,30.39,NNE,22,1.4,20.1,72,0.00,,,0.00,Rainwise IP-100,2013-02-07 11:04:00,
2013-02-07 06:09:00,10.9,4.0,30.39,NW,315,6.1,17.5,73,0.00,,,0.00,Rainwise IP-100,2013-02-07 11:09:00,
2013-02-07 06:14:00,11.2,4.0,30.39,North,0,15.6,20.1,75,0.00,,,0.00,Rainwise IP-100,2013-02-07 11:14:00,
2013-02-07 06:19:00,11.2,4.0,30.39,North,0,15.4,23.3,75,0.00,,,0.00,Rainwise IP-100,2013-02-07 11:19:00,
2013-02-07 06:24:00,11.0,4.0,30.40,NW,315,13.3,20.5,75,0.00,,,0.00,Rainwise IP-100,2013-02-07 11:24:00,
2013-02-07 06:29:00,9.7,4.0,30.39,NNW,337,18.9,23.1,71,0.00,,,0.00,Rainwise IP-100,2013-02-07 11:29:00,
2013-02-07 06:34:00,8.4,0.0,30.39,NW,315,12.6,24.2,66,0.00,,,0.00,Rainwise IP-100,2013-02-07 11:34:00,
2013-02-07 06:39:00,7.9,0.0,30.40,NW,315,19.8,24.2,62,0.00,,,0.00,Rainwise IP-100,2013-02-07 11:39:00,
2013-02-07 06:44:00,7.6,0.0,30.41,NNW,337,15.6,22.6,61,0.00,,,0.00,Rainwise IP-100,2013-02-07 11:44:00,
2013-02-07 06:49:00,7.6,0.0,30.41,NW,315,14.5,27.5,61,0.00,,,0.00,Rainwise IP-100,2013-02-07 11:49:00,
2013-02-07 06:54:00,7.8,0.0,30.41,NNW,337,24.2,24.9,62,0.00,,,0.00,Rainwise IP-100,2013-02-07 11:54:00,
2013-02-07 06:59:00,7.9,0.0,30.41,NW,315,16.1,29.1,61,0.00,,,0.00,Rainwise IP-100,2013-02-07 11:59:00,
2013-02-07 07:04:00,7.8,0.0,30.41,NW,315,17.7,26.8,60,0.00,,,0.00,Rainwise IP-100,2013-02-07 12:04:00,
2013-02-07 07:09:00,7.7,0.0,30.42,NW,315,18.0,21.9,59,0.00,,,0.00,Rainwise IP-100,2013-02-07 12:09:00,
2013-02-07 07:14:00,7.8,0.0,30.42,NW,315,19.8,23.3,59,0.00,,,0.00,Rainwise IP-100,2013-02-07 12:14:00,
2013-02-07 07:19:00,8.0,0.0,30.42,NNW,337,14.7,21.2,59,0.00,,,0.00,Rainwise IP-100,2013-02-07 12:19:00,
2013-02-07 07:24:00,8.4,0.0,30.42,NE,45,9.3,21.7,62,0.00,,,0.00,Rainwise IP-100,2013-02-07 12:24:00,
2013-02-07 07:29:00,9.3,4.0,30.43,NW,315,12.1,22.4,66,0.00,,,0.00,Rainwise IP-100,2013-02-07 12:29:00,
2013-02-07 07:34:00,10.0,4.0,30.43,SE,135,0.0,21.0,68,0.00,,,0.00,Rainwise IP-100,2013-02-07 12:34:00,
2013-02-07 07:39:00,10.4,4.0,30.44,NW,315,24.5,24.9,69,0.00,,,0.00,Rainwise IP-100,2013-02-07 12:39:00,
2013-02-07 07:44:00,10.1,4.0,30.44,NW,315,5.4,24.5,68,0.00,,,0.00,Rainwise IP-100,2013-02-07 12:44:00,
2013-02-07 07:49:00,9.9,4.0,30.44,NNW,337,14.5,23.1,68,0.00,,,0.00,Rainwise IP-100,2013-02-07 12:49:00,
2013-02-07 07:54:00,10.5,4.0,30.44,North,0,22.9,22.9,71,0.00,,,0.00,Rainwise IP-100,2013-02-07 12:54:00,
2013-02-07 07:59:00,10.5,4.0,30.45,NW,315,18.7,27.3,71,0.00,,,0.00,Rainwise IP-100,2013-02-07 12:59:00,
2013-02-07 08:04:00,9.8,4.0,30.44,NNW,337,16.8,26.8,69,0.00,,,0.00,Rainwise IP-100,2013-02-07 13:04:00,
2013-02-07 08:09:00,8.5,0.0,30.44,NNW,337,19.8,26.3,64,0.00,,,0.00,Rainwise IP-100,2013-02-07 13:09:00,
2013-02-07 08:14:00,7.9,0.0,30.44,NNW,337,20.5,28.0,61,0.00,,,0.00,Rainwise IP-100,2013-02-07 13:14:00,
2013-02-07 08:19:00,8.3,0.0,30.45,NNW,337,14.2,28.7,63,0.00,,,0.00,Rainwise IP-100,2013-02-07 13:19:00,
2013-02-07 08:24:00,9.5,4.0,30.46,North,0,12.4,21.9,68,0.00,,,0.00,Rainwise IP-100,2013-02-07 13:24:00,
2013-02-07 08:29:00,10.2,4.0,30.45,NNW,337,9.3,24.9,71,0.00,,,0.00,Rainwise IP-100,2013-02-07 13:29:00,
2013-02-07 08:34:00,10.2,4.0,30.45,North,0,18.4,28.9,70,0.00,,,0.00,Rainwise IP-100,2013-02-07 13:34:00,
2013-02-07 08:39:00,9.8,4.0,30.45,NW,315,24.2,30.3,68,0.00,,,0.00,Rainwise IP-100,2013-02-07 13:39:00,
2013-02-07 08:44:00,8.8,0.0,30.44,NNW,337,10.7,27.7,63,0.00,,,0.00,Rainwise IP-100,2013-02-07 13:44:00,
2013-02-07 08:49:00,8.5,0.0,30.45,NNW,337,24.2,25.4,61,0.00,,,0.00,Rainwise IP-100,2013-02-07 13:49:00,
2013-02-07 08:54:00,8.4,0.0,30.45,NNW,337,22.6,30.1,61,0.00,,,0.00,Rainwise IP-100,2013-02-07 13:54:00,
2013-02-07 08:59:00,7.7,-6.0,30.46,NW,315,24.9,26.6,58,0.00,,,0.00,Rainwise IP-100,2013-02-07 13:59:00,
2013-02-07 09:04:00,7.6,-6.0,30.46,NW,315,14.2,27.0,56,0.00,,,0.00,Rainwise IP-100,2013-02-07 14:04:00,
2013-02-07 09:09:00,8.0,-6.0,30.46,NNW,337,20.3,27.0,58,0.00,,,0.00,Rainwise IP-100,2013-02-07 14:09:00,
2013-02-07 09:14:00,8.3,-6.0,30.47,South,180,5.8,23.8,58,0.00,,,0.00,Rainwise IP-100,2013-02-07 14:14:00,
2013-02-07 09:19:00,9.4,0.0,30.48,West,270,2.3,24.2,63,0.00,,,0.00,Rainwise IP-100,2013-02-07 14:19:00,
2013-02-07 09:24:00,10.9,4.0,30.48,North,0,3.7,23.6,68,0.00,,,0.00,Rainwise IP-100,2013-02-07 14:24:00,
2013-02-07 09:29:00,11.4,4.0,30.49,West,270,5.1,22.2,70,0.00,,,0.00,Rainwise IP-100,2013-02-07 14:29:00,
2013-02-07 09:34:00,11.7,8.0,30.48,NW,315,11.9,23.1,70,0.00,,,0.00,Rainwise IP-100,2013-02-07 14:34:00,
2013-02-07 09:39:00,11.5,4.0,30.49,North,0,13.8,24.7,68,0.00,,,0.00,Rainwise IP-100,2013-02-07 14:39:00,
2013-02-07 09:44:00,10.4,0.0,30.48,NW,315,19.4,24.0,64,0.00,,,0.00,Rainwise IP-100,2013-02-07 14:44:00,
2013-02-07 09:49:00,9.6,0.0,30.48,South,180,2.1,25.2,61,0.00,,,0.00,Rainwise IP-100,2013-02-07 14:49:00,
2013-02-07 09:54:00,9.2,0.0,30.48,SE,135,0.0,24.2,60,0.00,,,0.00,Rainwise IP-100,2013-02-07 14:54:00,
2013-02-07 09:59:00,9.5,0.0,30.48,North,0,18.9,24.2,61,0.00,,,0.00,Rainwise IP-100,2013-02-07 14:59:00,
2013-02-07 10:04:00,9.3,0.0,30.48,NNW,337,8.2,24.0,59,0.00,,,0.00,Rainwise IP-100,2013-02-07 15:04:00,
2013-02-07 10:09:00,9.6,0.0,30.49,NW,315,10.5,23.3,60,0.00,,,0.00,Rainwise IP-100,2013-02-07 15:09:00,
2013-02-07 10:14:00,10.2,0.0,30.50,NNW,337,8.9,22.9,62,0.00,,,0.00,Rainwise IP-100,2013-02-07 15:14:00,
2013-02-07 10:19:00,10.8,0.0,30.50,ENE,67,1.9,18.2,64,0.00,,,0.00,Rainwise IP-100,2013-02-07 15:19:00,
2013-02-07 10:24:00,11.6,4.0,30.51,NE,45,2.6,10.5,66,0.00,,,0.00,Rainwise IP-100,2013-02-07 15:24:00,
2013-02-07 10:29:00,12.4,4.0,30.51,East,90,3.5,8.9,67,0.00,,,0.00,Rainwise IP-100,2013-02-07 15:29:00,
2013-02-07 10:34:00,12.8,4.0,30.51,NNW,337,21.0,21.0,67,0.00,,,0.00,Rainwise IP-100,2013-02-07 15:34:00,
2013-02-07 10:39:00,12.3,4.0,30.51,NNW,337,11.7,22.6,65,0.00,,,0.00,Rainwise IP-100,2013-02-07 15:39:00,
2013-02-07 10:44:00,12.1,4.0,30.51,NNW,337,15.9,19.8,64,0.00,,,0.00,Rainwise IP-100,2013-02-07 15:44:00,
2013-02-07 10:49:00,12.2,4.0,30.52,NW,315,6.5,20.1,64,0.00,,,0.00,Rainwise IP-100,2013-02-07 15:49:00,
2013-02-07 10:54:00,12.3,4.0,30.52,North,0,6.3,16.3,64,0.00,,,0.00,Rainwise IP-100,2013-02-07 15:54:00,
2013-02-07 10:59:00,12.6,4.0,30.52,NW,315,0.0,16.1,64,0.00,,,0.00,Rainwise IP-100,2013-02-07 15:59:00,
2013-02-07 11:04:00,12.7,4.0,30.51,North,0,3.0,15.9,63,0.00,,,0.00,Rainwise IP-100,2013-02-07 16:04:00,
2013-02-07 11:09:00,12.7,4.0,30.51,NNE,22,4.4,18.0,63,0.00,,,0.00,Rainwise IP-100,2013-02-07 16:09:00,
2013-02-07 11:14:00,12.7,4.0,30.51,NNW,337,0.0,18.4,62,0.00,,,0.00,Rainwise IP-100,2013-02-07 16:14:00,
2013-02-07 11:19:00,12.6,4.0,30.51,NNW,337,13.3,17.5,63,0.00,,,0.00,Rainwise IP-100,2013-02-07 16:19:00,
2013-02-07 11:24:00,12.0,4.0,30.51,North,0,11.0,18.2,61,0.00,,,0.00,Rainwise IP-100,2013-02-07 16:24:00,
2013-02-07 11:29:00,11.7,4.0,30.51,NNW,337,13.5,20.5,60,0.00,,,0.00,Rainwise IP-100,2013-02-07 16:29:00,
2013-02-07 11:34:00,11.7,4.0,30.51,NE,45,0.0,19.8,60,0.00,,,0.00,Rainwise IP-100,2013-02-07 16:34:00,
2013-02-07 11:39:00,12.1,4.0,30.50,NNW,337,15.4,16.8,61,0.00,,,0.00,Rainwise IP-100,2013-02-07 16:39:00,
2013-02-07 11:44:00,11.9,4.0,30.51,NNW,337,11.9,18.4,60,0.00,,,0.00,Rainwise IP-100,2013-02-07 16:44:00,
2013-02-07 11:49:00,10.8,0.0,30.50,NNW,337,14.5,18.9,54,0.00,,,0.00,Rainwise IP-100,2013-02-07 16:49:00,
2013-02-07 11:54:00,10.1,0.0,30.50,NW,315,4.0,21.7,51,0.00,,,0.00,Rainwise IP-100,2013-02-07 16:54:00,
2013-02-07 11:59:00,10.4,0.0,30.50,East,90,1.2,20.3,52,0.00,,,0.00,Rainwise IP-100,2013-02-07 16:59:00,
2013-02-07 12:04:00,11.6,4.0,30.51,NNW,337,17.3,17.3,57,0.00,,,0.00,Rainwise IP-100,2013-02-07 17:04:00,
2013-02-07 12:09:00,12.2,4.0,30.50,NNW,337,10.5,23.6,59,0.00,,,0.00,Rainwise IP-100,2013-02-07 17:09:00,
2013-02-07 12:14:00,12.1,4.0,30.50,West,270,2.3,20.1,57,0.00,,,0.00,Rainwise IP-100,2013-02-07 17:14:00,
2013-02-07 12:19:00,12.4,4.0,30.50,North,0,2.1,20.5,58,0.00,,,0.00,Rainwise IP-100,2013-02-07 17:19:00,
2013-02-07 12:24:00,13.2,4.0,30.50,NNW,337,8.4,22.6,61,0.00,,,0.00,Rainwise IP-100,2013-02-07 17:24:00,
2013-02-07 12:29:00,12.6,4.0,30.50,NW,315,13.1,19.6,57,0.00,,,0.00,Rainwise IP-100,2013-02-07 17:29:00,
2013-02-07 12:34:00,11.3,0.0,30.50,North,0,2.1,18.0,50,0.00,,,0.00,Rainwise IP-100,2013-02-07 17:34:00,
2013-02-07 12:39:00,11.2,0.0,30.50,NNW,337,6.1,19.1,50,0.00,,,0.00,Rainwise IP-100,2013-02-07 17:39:00,
2013-02-07 12:44:00,11.7,0.0,30.51,ENE,67,3.0,15.4,52,0.00,,,0.00,Rainwise IP-100,2013-02-07 17:44:00,
2013-02-07 12:49:00,12.6,0.0,30.50,NW,315,3.7,14.2,56,0.00,,,0.00,Rainwise IP-100,2013-02-07 17:49:00,
2013-02-07 12:54:00,13.5,4.0,30.50,East,90,0.0,12.8,58,0.00,,,0.00,Rainwise IP-100,2013-02-07 17:54:00,
2013-02-07 12:59:00,13.9,4.0,30.50,NNW,337,14.7,20.8,58,0.00,,,0.00,Rainwise IP-100,2013-02-07 17:59:00,
2013-02-07 13:04:00,13.6,0.0,30.50,NNW,337,13.5,20.1,54,0.00,,,0.00,Rainwise IP-100,2013-02-07 18:04:00,
2013-02-07 13:09:00,12.8,0.0,30.50,NNW,337,14.7,18.2,50,0.00,,,0.00,Rainwise IP-100,2013-02-07 18:09:00,
2013-02-07 13:14:00,13.1,0.0,30.50,NNW,337,4.7,15.9,51,0.00,,,0.00,Rainwise IP-100,2013-02-07 18:14:00,
2013-02-07 13:19:00,13.5,0.0,30.50,NNW,337,7.9,19.6,53,0.00,,,0.00,Rainwise IP-100,2013-02-07 18:19:00,
2013-02-07 13:24:00,13.2,0.0,30.50,NW,315,14.5,18.7,50,0.00,,,0.00,Rainwise IP-100,2013-02-07 18:24:00,
2013-02-07 13:29:00,12.5,0.0,30.49,East,90,2.3,20.3,47,0.00,,,0.00,Rainwise IP-100,2013-02-07 18:29:00,
2013-02-07 13:34:00,12.3,0.0,30.49,NNW,337,15.9,23.3,46,0.00,,,0.00,Rainwise IP-100,2013-02-07 18:34:00,
2013-02-07 13:39:00,12.8,0.0,30.49,NNW,337,18.2,21.9,47,0.00,,,0.00,Rainwise IP-100,2013-02-07 18:39:00,
2013-02-07 13:44:00,13.3,0.0,30.50,NNE,22,2.1,19.6,49,0.00,,,0.00,Rainwise IP-100,2013-02-07 18:44:00,
2013-02-07 13:49:00,14.1,0.0,30.50,NW,315,4.7,16.6,52,0.00,,,0.00,Rainwise IP-100,2013-02-07 18:49:00,
2013-02-07 13:54:00,14.9,4.0,30.49,NNW,337,15.9,21.2,54,0.00,,,0.00,Rainwise IP-100,2013-02-07 18:54:00,
2013-02-07 13:59:00,14.9,4.0,30.50,North,0,3.5,23.6,53,0.00,,,0.00,Rainwise IP-100,2013-02-07 18:59:00,
2013-02-07 14:04:00,15.0,4.0,30.50,North,0,1.4,8.9,52,0.00,,,0.00,Rainwise IP-100,2013-02-07 19:04:00,
2013-02-07 14:09:00,15.5,4.0,30.51,SE,135,0.0,7.9,53,0.00,,,0.00,Rainwise IP-100,2013-02-07 19:09:00,
2013-02-07 14:14:00,15.7,4.0,30.50,SW,225,0.0,5.8,53,0.00,,,0.00,Rainwise IP-100,2013-02-07 19:14:00,
2013-02-07 14:19:00,15.9,4.0,30.51,NW,315,4.0,17.7,52,0.00,,,0.00,Rainwise IP-100,2013-02-07 19:19:00,
2013-02-07 14:24:00,16.0,4.0,30.50,WNW,292,0.0,6.3,51,0.00,,,0.00,Rainwise IP-100,2013-02-07 19:24:00,
2013-02-07 14:29:00,16.1,4.0,30.51,North,0,3.7,4.2,51,0.00,,,0.00,Rainwise IP-100,2013-02-07 19:29:00,
2013-02-07 14:34:00,16.2,4.0,30.50,North,0,3.3,17.0,50,0.00,,,0.00,Rainwise IP-100,2013-02-07 19:34:00,
2013-02-07 14:39:00,15.9,0.0,30.50,WSW,247,1.4,20.3,48,0.00,,,0.00,Rainwise IP-100,2013-02-07 19:39:00,
2013-02-07 14:44:00,15.5,0.0,30.51,SW,225,1.6,6.1,47,0.00,,,0.00,Rainwise IP-100,2013-02-07 19:44:00,
2013-02-07 14:49:00,15.6,0.0,30.50,South,180,4.4,9.8,48,0.00,,,0.00,Rainwise IP-100,2013-02-07 19:49:00,
2013-02-07 14:54:00,15.8,0.0,30.50,NW,315,0.0,9.1,48,0.00,,,0.00,Rainwise IP-100,2013-02-07 19:54:00,
2013-02-07 14:59:00,15.9,0.0,30.50,SE,135,0.0,10.0,49,0.00,,,0.00,Rainwise IP-100,2013-02-07 19:59:00,
2013-02-07 15:04:00,16.1,4.0,30.51,NNE,22,3.3,14.9,50,0.00,,,0.00,Rainwise IP-100,2013-02-07 20:04:00,
2013-02-07 15:09:00,16.3,4.0,30.50,West,270,0.0,7.7,50,0.00,,,0.00,Rainwise IP-100,2013-02-07 20:09:00,
2013-02-07 15:14:00,16.4,4.0,30.50,NNW,337,14.7,15.4,50,0.00,,,0.00,Rainwise IP-100,2013-02-07 20:14:00,
2013-02-07 15:19:00,16.3,0.0,30.51,NE,45,2.8,17.7,49,0.00,,,0.00,Rainwise IP-100,2013-02-07 20:19:00,
2013-02-07 15:24:00,16.2,0.0,30.50,NE,45,1.9,14.5,49,0.00,,,0.00,Rainwise IP-100,2013-02-07 20:24:00,
2013-02-07 15:29:00,15.9,0.0,30.50,North,0,0.0,9.3,49,0.00,,,0.00,Rainwise IP-100,2013-02-07 20:29:00,
2013-02-07 15:34:00,15.8,4.0,30.50,NNW,337,4.9,5.8,50,0.00,,,0.00,Rainwise IP-100,2013-02-07 20:34:00,
2013-02-07 15:39:00,15.8,4.0,30.51,NNW,337,1.9,11.7,50,0.00,,,0.00,Rainwise IP-100,2013-02-07 20:39:00,
2013-02-07 15:44:00,15.9,0.0,30.51,North,0,4.2,12.8,49,0.00,,,0.00,Rainwise IP-100,2013-02-07 20:44:00,
2013-02-07 15:49:00,16.1,4.0,30.51,SW,225,1.2,12.1,50,0.00,,,0.00,Rainwise IP-100,2013-02-07 20:49:00,
2013-02-07 15:54:00,16.0,4.0,30.51,SW,225,0.0,5.6,50,0.00,,,0.00,Rainwise IP-100,2013-02-07 20:54:00,
2013-02-07 15:59:00,15.9,0.0,30.51,NNW,337,13.8,13.8,49,0.00,,,0.00,Rainwise IP-100,2013-02-07 20:59:00,
2013-02-07 16:04:00,15.9,0.0,30.51,NNW,337,13.3,17.0,49,0.00,,,0.00,Rainwise IP-100,2013-02-07 21:04:00,
2013-02-07 16:09:00,15.2,0.0,30.51,NNW,337,12.4,17.0,46,0.00,,,0.00,Rainwise IP-100,2013-02-07 21:09:00,
2013-02-07 16:14:00,14.4,0.0,30.51,NNW,337,15.6,20.1,44,0.00,,,0.00,Rainwise IP-100,2013-02-07 21:14:00,
2013-02-07 16:19:00,14.2,0.0,30.51,SW,225,0.0,18.2,45,0.00,,,0.00,Rainwise IP-100,2013-02-07 21:19:00,
2013-02-07 16:24:00,14.2,0.0,30.51,North,0,8.9,16.6,47,0.00,,,0.00,Rainwise IP-100,2013-02-07 21:24:00,
2013-02-07 16:29:00,14.1,0.0,30.52,NNW,337,12.1,15.9,47,0.00,,,0.00,Rainwise IP-100,2013-02-07 21:29:00,
2013-02-07 16:34:00,13.7,0.0,30.53,West,270,0.0,15.4,46,0.00,,,0.00,Rainwise IP-100,2013-02-07 21:34:00,
2013-02-07 16:39:00,13.5,0.0,30.53,WSW,247,1.4,4.4,48,0.00,,,0.00,Rainwise IP-100,2013-02-07 21:39:00,
2013-02-07 16:44:00,13.4,0.0,30.53,NNW,337,1.6,6.5,51,0.00,,,0.00,Rainwise IP-100,2013-02-07 21:44:00,
2013-02-07 16:49:00,13.1,0.0,30.52,NW,315,13.1,17.3,51,0.00,,,0.00,Rainwise IP-100,2013-02-07 21:49:00,
2013-02-07 16:54:00,13.0,0.0,30.52,North,0,1.9,14.0,51,0.00,,,0.00,Rainwise IP-100,2013-02-07 21:54:00,
2013-02-07 16:59:00,13.0,0.0,30.53,NE,45,2.8,13.5,53,0.00,,,0.00,Rainwise IP-100,2013-02-07 21:59:00,
2013-02-07 17:04:00,12.9,0.0,30.53,NNW,337,11.2,15.9,53,0.00,,,0.00,Rainwise IP-100,2013-02-07 22:04:00,
2013-02-07 17:09:00,12.7,0.0,30.53,SSW,202,0.0,15.9,51,0.00,,,0.00,Rainwise IP-100,2013-02-07 22:09:00,
2013-02-07 17:14:00,12.8,0.0,30.53,NE,45,1.6,10.0,53,0.00,,,0.00,Rainwise IP-100,2013-02-07 22:14:00,
2013-02-07 17:19:00,13.0,0.0,30.54,North,0,2.3,13.1,56,0.00,,,0.00,Rainwise IP-100,2013-02-07 22:19:00,
2013-02-07 17:24:00,12.9,0.0,30.54,SW,225,1.4,10.0,55,0.00,,,0.00,Rainwise IP-100,2013-02-07 22:24:00,
2013-02-07 17:29:00,12.9,0.0,30.54,NE,45,2.8,11.2,55,0.00,,,0.00,Rainwise IP-100,2013-02-07 22:29:00,
2013-02-07 17:34:00,12.9,0.0,30.54,SSW,202,0.0,4.2,56,0.00,,,0.00,Rainwise IP-100,2013-02-07 22:34:00,
2013-02-07 17:39:00,12.9,0.0,30.54,South,180,1.4,4.2,56,0.00,,,0.00,Rainwise IP-100,2013-02-07 22:39:00,
2013-02-07 17:44:00,12.9,0.0,30.54,NW,315,8.4,8.4,55,0.00,,,0.00,Rainwise IP-100,2013-02-07 22:44:00,
2013-02-07 17:49:00,12.8,0.0,30.54,NW,315,0.0,12.1,56,0.00,,,0.00,Rainwise IP-100,2013-02-07 22:49:00,
2013-02-07 17:54:00,12.9,4.0,30.55,North,0,4.0,11.0,57,0.00,,,0.00,Rainwise IP-100,2013-02-07 22:54:00,
2013-02-07 17:59:00,12.9,4.0,30.55,South,180,1.2,11.2,58,0.00,,,0.00,Rainwise IP-100,2013-02-07 22:59:00,
2013-02-07 18:04:00,12.9,4.0,30.55,North,0,1.6,13.3,59,0.00,,,0.00,Rainwise IP-100,2013-02-07 23:04:00,
2013-02-07 18:09:00,12.9,4.0,30.55,South,180,0.0,11.2,58,0.00,,,0.00,Rainwise IP-100,2013-02-07 23:09:00,
2013-02-07 18:14:00,12.9,4.0,30.55,North,0,1.2,8.6,58,0.00,,,0.00,Rainwise IP-100,2013-02-07 23:14:00,
2013-02-07 18:19:00,13.0,4.0,30.56,North,0,7.7,15.4,59,0.00,,,0.00,Rainwise IP-100,2013-02-07 23:19:00,
2013-02-07 18:24:00,13.0,4.0,30.56,NNW,337,7.0,12.8,58,0.00,,,0.00,Rainwise IP-100,2013-02-07 23:24:00,
2013-02-07 18:29:00,12.7,4.0,30.56,North,0,7.7,13.1,57,0.00,,,0.00,Rainwise IP-100,2013-02-07 23:29:00,
2013-02-07 18:34:00,12.6,4.0,30.56,NNW,337,0.0,11.0,57,0.00,,,0.00,Rainwise IP-100,2013-02-07 23:34:00,
2013-02-07 18:39:00,12.8,4.0,30.56,NW,315,2.1,7.0,59,0.00,,,0.00,Rainwise IP-100,2013-02-07 23:39:00,
2013-02-07 18:44:00,12.6,4.0,30.57,North,0,3.0,7.9,58,0.00,,,0.00,Rainwise IP-100,2013-02-07 23:44:00,
2013-02-07 18:49:00,12.2,0.0,30.58,SE,135,0.0,10.3,55,0.00,,,0.00,Rainwise IP-100,2013-02-07 23:49:00,
2013-02-07 18:54:00,12.0,0.0,30.58,SW,225,0.0,9.3,55,0.00,,,0.00,Rainwise IP-100,2013-02-07 23:54:00,
2013-02-07 18:59:00,12.0,0.0,30.57,East,90,4.7,5.6,55,0.00,,,0.00,Rainwise IP-100,2013-02-07 23:59:00,
2013-02-07 19:04:00,11.9,0.0,30.56,NE,45,1.2,8.9,55,0.00,,,0.00,Rainwise IP-100,2013-02-08 00:04:00,
2013-02-07 19:09:00,11.8,0.0,30.56,NNW,337,0.0,8.6,55,0.00,,,0.00,Rainwise IP-100,2013-02-08 00:09:00,
2013-02-07 19:14:00,11.7,0.0,30.56,SW,225,0.0,7.5,54,0.00,,,0.00,Rainwise IP-100,2013-02-08 00:14:00,
2013-02-07 19:19:00,11.6,0.0,30.57,North,0,3.7,11.4,54,0.00,,,0.00,Rainwise IP-100,2013-02-08 00:19:00,
2013-02-07 19:24:00,11.8,0.0,30.57,SE,135,1.2,7.0,55,0.00,,,0.00,Rainwise IP-100,2013-02-08 00:24:00,
2013-02-07 19:29:00,12.1,4.0,30.57,NNW,337,3.3,3.3,57,0.00,,,0.00,Rainwise IP-100,2013-02-08 00:29:00,
2013-02-07 19:34:00,12.1,0.0,30.57,NW,315,0.0,5.4,56,0.00,,,0.00,Rainwise IP-100,2013-02-08 00:34:00,
2013-02-07 19:39:00,11.9,0.0,30.56,SSE,157,0.0,9.3,55,0.00,,,0.00,Rainwise IP-100,2013-02-08 00:39:00,
2013-02-07 19:44:00,11.9,0.0,30.57,NW,315,0.0,9.3,55,0.00,,,0.00,Rainwise IP-100,2013-02-08 00:44:00,
2013-02-07 19:49:00,12.0,0.0,30.57,NW,315,3.0,7.2,56,0.00,,,0.00,Rainwise IP-100,2013-02-08 00:49:00,
2013-02-07 19:54:00,12.0,0.0,30.57,North,0,1.2,8.9,56,0.00,,,0.00,Rainwise IP-100,2013-02-08 00:54:00,
2013-02-07 19:59:00,11.7,0.0,30.58,NE,45,9.6,14.7,55,0.00,,,0.00,Rainwise IP-100,2013-02-08 00:59:00,
2013-02-07 20:04:00,11.5,0.0,30.58,NE,45,12.8,13.8,52,0.00,,,0.00,Rainwise IP-100,2013-02-08 01:04:00,
2013-02-07 20:09:00,11.3,0.0,30.58,NNE,22,5.4,14.2,50,0.00,,,0.00,Rainwise IP-100,2013-02-08 01:09:00,
2013-02-07 20:14:00,11.1,-6.0,30.58,East,90,14.0,16.3,49,0.00,,,0.00,Rainwise IP-100,2013-02-08 01:14:00,
2013-02-07 20:19:00,10.6,0.0,30.58,ENE,67,6.1,15.4,50,0.00,,,0.00,Rainwise IP-100,2013-02-08 01:19:00,
2013-02-07 20:24:00,10.1,0.0,30.58,ENE,67,10.7,15.6,51,0.00,,,0.00,Rainwise IP-100,2013-02-08 01:24:00,
2013-02-07 20:29:00,10.0,0.0,30.58,ENE,67,6.3,14.9,51,0.00,,,0.00,Rainwise IP-100,2013-02-08 01:29:00,
2013-02-07 20:34:00,9.9,0.0,30.59,ENE,67,8.9,15.6,51,0.00,,,0.00,Rainwise IP-100,2013-02-08 01:34:00,
2013-02-07 20:39:00,9.7,0.0,30.59,East,90,7.7,13.5,51,0.00,,,0.00,Rainwise IP-100,2013-02-08 01:39:00,
2013-02-07 20:44:00,9.7,0.0,30.59,ENE,67,11.9,13.5,52,0.00,,,0.00,Rainwise IP-100,2013-02-08 01:44:00,
2013-02-07 20:49:00,9.8,0.0,30.59,NNE,22,5.8,12.6,53,0.00,,,0.00,Rainwise IP-100,2013-02-08 01:49:00,
2013-02-07 20:54:00,9.8,0.0,30.60,NE,45,6.1,10.3,52,0.00,,,0.00,Rainwise IP-100,2013-02-08 01:54:00,
2013-02-07 20:59:00,9.6,0.0,30.61,NE,45,4.2,12.6,52,0.00,,,0.00,Rainwise IP-100,2013-02-08 01:59:00,
2013-02-07 21:04:00,9.6,0.0,30.60,NE,45,4.2,11.2,52,0.00,,,0.00,Rainwise IP-100,2013-02-08 02:04:00,
2013-02-07 21:09:00,9.4,0.0,30.60,ENE,67,6.1,9.3,51,0.00,,,0.00,Rainwise IP-100,2013-02-08 02:09:00,
2013-02-07 21:14:00,9.4,0.0,30.60,ENE,67,4.9,13.3,51,0.00,,,0.00,Rainwise IP-100,2013-02-08 02:14:00,
2013-02-07 21:19:00,9.3,0.0,30.61,ENE,67,5.6,10.3,51,0.00,,,0.00,Rainwise IP-100,2013-02-08 02:19:00,
2013-02-07 21:24:00,9.3,0.0,30.61,ENE,67,9.1,11.9,51,0.00,,,0.00,Rainwise IP-100,2013-02-08 02:24:00,
2013-02-07 21:29:00,9.3,0.0,30.60,NE,45,8.6,10.3,51,0.00,,,0.00,Rainwise IP-100,2013-02-08 02:29:00,
2013-02-07 21:34:00,9.3,0.0,30.60,ENE,67,9.8,11.9,51,0.00,,,0.00,Rainwise IP-100,2013-02-08 02:34:00,
2013-02-07 21:39:00,9.3,0.0,30.60,ENE,67,10.0,14.0,51,0.00,,,0.00,Rainwise IP-100,2013-02-08 02:39:00,
2013-02-07 21:44:00,9.2,0.0,30.60,ENE,67,8.4,14.5,51,0.00,,,0.00,Rainwise IP-100,2013-02-08 02:44:00,
2013-02-07 21:49:00,9.2,0.0,30.60,ENE,67,7.5,12.8,50,0.00,,,0.00,Rainwise IP-100,2013-02-08 02:49:00,
2013-02-07 21:54:00,9.3,0.0,30.60,NE,45,5.6,13.3,50,0.00,,,0.00,Rainwise IP-100,2013-02-08 02:54:00,
2013-02-07 21:59:00,9.3,0.0,30.60,NE,45,11.2,14.0,50,0.00,,,0.00,Rainwise IP-100,2013-02-08 02:59:00,
2013-02-07 22:04:00,9.2,0.0,30.59,ENE,67,9.1,16.6,51,0.00,,,0.00,Rainwise IP-100,2013-02-08 03:04:00,
2013-02-07 22:09:00,8.9,0.0,30.59,ENE,67,10.3,16.1,50,0.00,,,0.00,Rainwise IP-100,2013-02-08 03:09:00,
2013-02-07 22:14:00,9.0,0.0,30.59,East,90,5.8,14.5,51,0.00,,,0.00,Rainwise IP-100,2013-02-08 03:14:00,
2013-02-07 22:19:00,9.2,0.0,30.58,NE,45,8.9,16.8,52,0.00,,,0.00,Rainwise IP-100,2013-02-08 03:19:00,
2013-02-07 22:24:00,9.0,0.0,30.59,NE,45,7.0,18.9,52,0.00,,,0.00,Rainwise IP-100,2013-02-08 03:24:00,
2013-02-07 22:29:00,8.7,0.0,30.59,East,90,15.2,15.2,50,0.00,,,0.00,Rainwise IP-100,2013-02-08 03:29:00,
2013-02-07 22:34:00,8.9,0.0,30.59,ENE,67,12.1,15.9,51,0.00,,,0.00,Rainwise IP-100,2013-02-08 03:34:00,
2013-02-07 22:39:00,8.8,0.0,30.59,East,90,10.7,15.6,51,0.00,,,0.00,Rainwise IP-100,2013-02-08 03:39:00,
2013-02-07 22:44:00,8.5,0.0,30.59,East,90,13.3,15.4,50,0.00,,,0.00,Rainwise IP-100,2013-02-08 03:44:00,
2013-02-07 22:49:00,8.4,-6.0,30.59,East,90,14.0,15.2,49,0.00,,,0.00,Rainwise IP-100,2013-02-08 03:49:00,
2013-02-07 22:54:00,8.4,-6.0,30.60,ENE,67,6.3,17.0,50,0.00,,,0.00,Rainwise IP-100,2013-02-08 03:54:00,
2013-02-07 22:59:00,8.1,-6.0,30.60,ENE,67,14.0,18.2,50,0.00,,,0.00,Rainwise IP-100,2013-02-08 03:59:00,
2013-02-07 23:04:00,8.0,-6.0,30.59,NE,45,4.9,16.6,50,0.00,,,0.00,Rainwise IP-100,2013-02-08 04:04:00,
2013-02-07 23:09:00,8.0,-6.0,30.60,East,90,13.8,15.6,49,0.00,,,0.00,Rainwise IP-100,2013-02-08 04:09:00,
2013-02-07 23:14:00,8.1,-6.0,30.60,East,90,11.9,16.8,50,0.00,,,0.00,Rainwise IP-100,2013-02-08 04:14:00,
2013-02-07 23:19:00,8.0,-6.0,30.60,East,90,10.7,15.2,51,0.00,,,0.00,Rainwise IP-100,2013-02-08 04:19:00,
2013-02-07 23:24:00,7.9,-6.0,30.59,ENE,67,11.9,16.6,51,0.00,,,0.00,Rainwise IP-100,2013-02-08 04:24:00,
2013-02-07 23:29:00,7.9,-6.0,30.59,East,90,14.7,15.2,52,0.00,,,0.00,Rainwise IP-100,2013-02-08 04:29:00,
2013-02-07 23:34:00,8.1,-6.0,30.60,East,90,14.2,15.6,53,0.00,,,0.00,Rainwise IP-100,2013-02-08 04:34:00,
2013-02-07 23:39:00,8.3,-6.0,30.59,East,90,8.6,16.6,54,0.00,,,0.00,Rainwise IP-100,2013-02-08 04:39:00,
2013-02-07 23:44:00,8.3,-6.0,30.59,East,90,12.4,17.5,55,0.00,,,0.00,Rainwise IP-100,2013-02-08 04:44:00,
2013-02-07 23:49:00,8.1,-6.0,30.59,East,90,12.6,18.4,55,0.00,,,0.00,Rainwise IP-100,2013-02-08 04:49:00,
2013-02-07 23:54:00,7.7,-6.0,30.58,East,90,6.5,18.4,54,0.00,,,0.00,Rainwise IP-100,2013-02-08 04:54:00,
2013-02-07 23:59:00,7.5,-6.0,30.59,East,90,12.1,16.3,52,0.00,,,0.00,Rainwise IP-100,2013-02-08 04:59:00,